トロント・ピアソン国際空港の過去48時間の天気

トロント・ピアソン国際空港 (Toronto Pearson Int'L. Ont.)

現在時刻: 9/22 13:05 EDT (9/22 17:05 UTC) 以下の時間は現地時間です。

過去48時間のMETAR気象情報
時間 風向 風速(m/s) 視程 気温(℃) 湿度(%) 気圧(hPa) 天気現象
22 12:00 西 2 10km以上 19 46 1022.7
22 11:00 南西 4 10km以上 18 56 1023.5
22 10:00 不定 1 10km以上 14 67 1024.5
22 09:00 北西 2 10km以上 11 82 1024.9
22 08:00 北西 2 10km以上 9 87 1025.4
22 07:00 北西 2 10km以上 8 87 1025.5
22 06:00 西北西 1 10km以上 7 87 1025.7
22 05:00 2 10km以上 9 81 1025.9
22 04:00 北北西 2 10km以上 9 81 1026.5
22 03:00 不定 1 10km以上 9 81 1027
22 02:00 静穏 0 10km以上 12 71 1027.2
22 01:00 南東 2 10km以上 12 77 1027.8
22 00:00 南南東 1 10km以上 12 77 1028.4
21 23:00 南東 2 10km以上 13 77 1028.7
21 22:00 2 10km以上 14 72 1029.1
21 21:00 東南東 2 10km以上 14 67 1029.3
21 20:00 東南東 3 10km以上 15 59 1029.7
21 19:00 東南東 4 10km以上 15 55 1029.8
21 18:00 南東 4 10km以上 17 48 1030.2
21 17:00 南東 5 10km以上 18 45 1030.6
21 16:00 南南東 5 10km以上 19 43 1031.2
21 15:00 南南東 5 10km以上 19 40 1032
21 14:00 南東 5 10km以上 19 43 1032.9
21 13:00 南東 4 10km以上 19 46 1033.8
21 12:00 南南東 3 10km以上 17 52 1034.5
21 11:00 南南東 4 10km以上 16 55 1035.1
21 10:00 南東 3 10km以上 15 59 1035
21 09:00 不定 1 10km以上 12 67 1034.8
21 08:00 1 10km以上 8 81 1034.9
21 07:00 北北西 1 10km以上 6 81 1034.7
21 06:00 2 10km以上 7 76 1034.3
21 05:00 北北東 2 10km以上 7 76 1034.3
21 04:00 北北東 2 10km以上 8 71 1034.2
21 03:00 北北東 2 10km以上 8 76 1034.5
21 02:00 2 10km以上 10 66 1034.7
21 01:00 南南東 1 10km以上 11 62 1034.7
21 00:00 2 10km以上 11 62 1034.6
20 23:00 2 10km以上 12 58 1034.8
20 22:00 2 10km以上 11 58 1035
20 21:00 3 10km以上 12 54 1035
20 20:00 2 10km以上 13 51 1034.8
20 19:00 東南東 3 10km以上 14 44 1034.6
20 18:00 東南東 4 10km以上 15 41 1034.4
20 17:00 東南東 4 10km以上 16 39 1034.5
20 16:00 4 10km以上 15 45 1035
CYYZ 221600Z 26004KT 220V330 15SM FEW240 19/07 A3019 RMK CI1 SLP227 DENSITY ALT 900FT
CYYZ 221500Z 23007KT 190V300 15SM FEW230 18/09 A3022 RMK CS2 SLP235 DENSITY ALT 800FT
CYYZ 221400Z VRB02KT 15SM SKC 14/08 A3024 RMK SLP245
CYYZ 221300Z 31004KT 15SM SKC 11/08 A3025 RMK SLP249
CYYZ 221200Z 32003KT 15SM SKC 09/07 A3027 RMK SLP254
CYYZ 221100Z 32003KT 15SM FEW260 08/06 A3027 RMK CI1 CI TR SLP255
CYYZ 221000Z 30002KT 15SM SKC 07/05 A3028 RMK SLP257
CYYZ 220900Z 01003KT 15SM SKC 09/06 A3028 RMK SLP259
CYYZ 220800Z 34004KT 310V010 15SM SKC 09/06 A3030 RMK SLP265
CYYZ 220700Z VRB02KT 15SM SKC 09/06 A3032 RMK SLP270
CYYZ 220600Z 00000KT 15SM SKC 12/07 A3033 RMK SLP272
CYYZ 220500Z 14003KT 15SM SKC 12/08 A3034 RMK SLP278
CYYZ 220400Z 16002KT 15SM SKC 12/08 A3036 RMK SLP284
CYYZ 220300Z 13003KT 15SM SKC 13/09 A3037 RMK SLP287
CYYZ 220200Z 10003KT 15SM SKC 14/09 A3038 RMK SLP291
CYYZ 220100Z 11004KT 15SM SKC 14/08 A3039 RMK SLP293
CYYZ 220000Z 12006KT 15SM FEW180 15/07 A3039 RMK AC1 AC TR SLP297
CYYZ 212300Z 12008KT 15SM FEW250 15/06 A3040 RMK CI1 CI TR SLP298
CYYZ 212200Z 14008KT 15SM FEW250 17/06 A3041 RMK CI1 CI TR SLP302
CYYZ 212100Z 13010KT 100V160 15SM FEW250 18/06 A3042 RMK CI1 SLP306
CYYZ 212000Z 15009G15KT 110V180 15SM FEW055 FEW250 19/06 A3044 RMK CF1CI2 CF TR SLP312 DENSITY ALT 600FT
CYYZ 211900Z 16010KT 110V180 15SM FEW055 FEW180 FEW250 19/05 A3046 RMK CF1AC1CI2 CF TR AC TR SLP320 DENSITY ALT 600FT
CYYZ 211800Z 14009G15KT 110V190 15SM FEW055 FEW210 SCT250 19/06 A3049 RMK CF1CC1CI3 CF TR SLP329
CYYZ 211700Z 14008KT 15SM FEW050 FEW210 BKN250 19/07 A3052 RMK CF1CC1CI4 CF TR SLP338
CYYZ 211600Z 16006KT 070V200 15SM FEW040 BKN250 17/07 A3054 RMK CF1CI5 CF TR SLP345
CYYZ 211500Z 15007KT 130V190 15SM FEW035 SCT250 16/07 A3056 RMK CF1CI3 CF TR SLP351
CYYZ 211400Z 14006KT 100V170 15SM FEW250 15/07 A3055 RMK CI2 SLP350
CYYZ 211300Z VRB02KT 15SM FEW250 12/06 A3054 RMK CI1 SLP348
CYYZ 211200Z 36002KT 15SM FEW250 08/05 A3055 RMK CI1 SLP349
CYYZ 211100Z 33002KT 15SM FEW070 FEW250 06/03 A3054 RMK AC1CI1 AC TR CI TR SLP347
CYYZ 211000Z 01003KT 15SM SKC 07/03 A3053 RMK SLP343
CYYZ 210900Z 02003KT 15SM SKC 07/03 A3053 RMK SLP343
CYYZ 210800Z 02004KT 15SM SKC 08/03 A3053 RMK SLP342
CYYZ 210700Z 02003KT 15SM SKC 08/04 A3054 RMK SLP345
CYYZ 210600Z 01003KT 310V020 15SM SKC 10/04 A3054 RMK SLP347
CYYZ 210500Z 16002KT 15SM SKC 11/04 A3054 RMK SLP347
CYYZ 210400Z 10003KT 15SM SKC 11/04 A3054 RMK SLP346
CYYZ 210300Z 08003KT 15SM SKC 12/04 A3055 RMK SLP348
CYYZ 210200Z 08003KT 15SM SKC 11/03 A3055 RMK SLP350
CYYZ 210100Z 10005KT 15SM SKC 12/03 A3055 RMK SLP350
CYYZ 210000Z 10004KT 15SM SKC 13/03 A3054 RMK SLP348
CYYZ 202300Z 12005KT 080V140 15SM FEW050 14/02 A3054 RMK CF1 CF TR SLP346
CYYZ 202200Z 11008KT 090V160 15SM FEW050 15/02 A3053 RMK CF1 CF TR SLP344
CYYZ 202100Z 12007KT 100V170 15SM FEW055 16/02 A3054 RMK CF1 SLP345
CYYZ 202000Z 10008KT 080V190 15SM FEW055 SCT070 15/03 A3055 RMK CF1AC2 SLP350